KAMN/AMN METAR and TAF weather

Enter ICAO airport designator
Station Type Date Time Source
KAMN METAR 2021/09/28 16:35 UTC NOAA

KAMN 281635Z AUTO 07004KT 10SM CLR 14/11 A3008 RMK AO2 T01440110


Station Type Date Time Source
KAMN Decoded METAR 2021/09/28 16:35 UTC NOAA

Alma, Gratiot Community Airport, MI, United States (KAMN) 43-19-19N 084-41-16W
Sep 28, 2021 - 12:35 PM EDT / 2021.09.28 1635 UTC
Wind: from the ENE (070 degrees) at 5 MPH (4 KT):0
Visibility: 10 mile(s):0
Sky conditions: clear
Temperature: 57.9 F (14.4 C)
Dew Point: 51.8 F (11.0 C)
Relative Humidity: 80%
Pressure (altimeter): 30.08 in. Hg (1018 hPa)
ob: KAMN 281635Z AUTO 07004KT 10SM CLR 14/11 A3008 RMK AO2 T01440110
cycle: 16

Station Type Date Time Source
KAMN TAF UTC NOAA

Error!

Example: see airport list